sensor_id;sensor_type;location;lat;lon;timestamp;temperature;humidity
43009;DHT22;28634;45.454;11.106;2022-09-19T00:01:49;26.30;36.90
43009;DHT22;28634;45.454;11.106;2022-09-19T00:04:20;26.30;36.90
43009;DHT22;28634;45.454;11.106;2022-09-19T00:06:48;26.30;37.00
43009;DHT22;28634;45.454;11.106;2022-09-19T00:09:20;26.30;36.90
43009;DHT22;28634;45.454;11.106;2022-09-19T00:11:49;26.30;36.90
43009;DHT22;28634;45.454;11.106;2022-09-19T00:14:20;26.30;36.90
43009;DHT22;28634;45.454;11.106;2022-09-19T00:16:48;26.30;36.90
43009;DHT22;28634;45.454;11.106;2022-09-19T00:19:19;26.30;37.00
43009;DHT22;28634;45.454;11.106;2022-09-19T00:21:48;26.30;37.00
43009;DHT22;28634;45.454;11.106;2022-09-19T00:24:18;26.20;37.10
43009;DHT22;28634;45.454;11.106;2022-09-19T00:27:05;26.30;37.00
43009;DHT22;28634;45.454;11.106;2022-09-19T00:29:34;26.30;37.10
43009;DHT22;28634;45.454;11.106;2022-09-19T00:32:03;26.20;37.00
43009;DHT22;28634;45.454;11.106;2022-09-19T00:34:34;26.20;37.00
43009;DHT22;28634;45.454;11.106;2022-09-19T00:37:02;26.20;37.00
43009;DHT22;28634;45.454;11.106;2022-09-19T00:39:29;26.20;37.00
43009;DHT22;28634;45.454;11.106;2022-09-19T00:41:57;26.20;37.00
43009;DHT22;28634;45.454;11.106;2022-09-19T00:47:01;26.20;37.10
43009;DHT22;28634;45.454;11.106;2022-09-19T00:49:34;26.20;37.10
43009;DHT22;28634;45.454;11.106;2022-09-19T00:52:19;26.20;37.00
43009;DHT22;28634;45.454;11.106;2022-09-19T00:54:49;26.20;37.20
43009;DHT22;28634;45.454;11.106;2022-09-19T00:57:17;26.20;37.10
43009;DHT22;28634;45.454;11.106;2022-09-19T00:59:47;26.20;37.20
43009;DHT22;28634;45.454;11.106;2022-09-19T01:02:16;26.20;37.20
43009;DHT22;28634;45.454;11.106;2022-09-19T01:04:46;26.10;37.10
43009;DHT22;28634;45.454;11.106;2022-09-19T01:10:48;26.20;37.20
43009;DHT22;28634;45.454;11.106;2022-09-19T01:18:27;26.10;37.20
43009;DHT22;28634;45.454;11.106;2022-09-19T01:29:45;26.10;37.40
43009;DHT22;28634;45.454;11.106;2022-09-19T01:32:17;26.10;37.40
43009;DHT22;28634;45.454;11.106;2022-09-19T01:34:51;26.20;37.40
43009;DHT22;28634;45.454;11.106;2022-09-19T01:37:25;26.20;37.40
43009;DHT22;28634;45.454;11.106;2022-09-19T01:39:56;26.20;37.40
43009;DHT22;28634;45.454;11.106;2022-09-19T01:42:24;26.20;37.40
43009;DHT22;28634;45.454;11.106;2022-09-19T01:44:51;26.20;37.30
43009;DHT22;28634;45.454;11.106;2022-09-19T01:55:23;26.20;37.30
43009;DHT22;28634;45.454;11.106;2022-09-19T02:00:39;26.20;37.40
43009;DHT22;28634;45.454;11.106;2022-09-19T02:03:33;26.20;37.30
43009;DHT22;28634;45.454;11.106;2022-09-19T02:06:12;26.20;37.40
43009;DHT22;28634;45.454;11.106;2022-09-19T02:08:51;26.20;37.40
43009;DHT22;28634;45.454;11.106;2022-09-19T02:11:22;26.20;37.40
43009;DHT22;28634;45.454;11.106;2022-09-19T02:14:04;26.20;37.40
43009;DHT22;28634;45.454;11.106;2022-09-19T02:16:42;26.20;37.50
43009;DHT22;28634;45.454;11.106;2022-09-19T02:19:18;26.20;37.50
43009;DHT22;28634;45.454;11.106;2022-09-19T02:21:55;26.20;37.40
43009;DHT22;28634;45.454;11.106;2022-09-19T02:24:27;26.20;37.40
43009;DHT22;28634;45.454;11.106;2022-09-19T02:27:00;26.20;37.50
43009;DHT22;28634;45.454;11.106;2022-09-19T02:29:42;26.20;37.40
43009;DHT22;28634;45.454;11.106;2022-09-19T02:32:12;26.20;37.30
43009;DHT22;28634;45.454;11.106;2022-09-19T02:34:39;26.20;37.40
43009;DHT22;28634;45.454;11.106;2022-09-19T02:37:19;26.20;37.50
43009;DHT22;28634;45.454;11.106;2022-09-19T02:42:55;26.20;37.50
43009;DHT22;28634;45.454;11.106;2022-09-19T02:45:43;26.20;37.50
43009;DHT22;28634;45.454;11.106;2022-09-19T02:48:20;26.20;37.50
43009;DHT22;28634;45.454;11.106;2022-09-19T02:50:56;26.20;37.60
43009;DHT22;28634;45.454;11.106;2022-09-19T02:53:33;26.20;37.40
43009;DHT22;28634;45.454;11.106;2022-09-19T02:56:10;26.20;37.50
43009;DHT22;28634;45.454;11.106;2022-09-19T02:58:47;26.20;37.50
43009;DHT22;28634;45.454;11.106;2022-09-19T03:01:21;26.20;37.50
43009;DHT22;28634;45.454;11.106;2022-09-19T03:03:53;26.20;37.60
43009;DHT22;28634;45.454;11.106;2022-09-19T03:09:22;26.20;37.60
43009;DHT22;28634;45.454;11.106;2022-09-19T03:14:46;26.20;37.60
43009;DHT22;28634;45.454;11.106;2022-09-19T03:17:16;26.20;37.50
43009;DHT22;28634;45.454;11.106;2022-09-19T03:19:48;26.20;37.60
43009;DHT22;28634;45.454;11.106;2022-09-19T03:22:15;26.20;37.60
43009;DHT22;28634;45.454;11.106;2022-09-19T03:24:42;26.20;37.60
43009;DHT22;28634;45.454;11.106;2022-09-19T03:27:09;26.20;37.60
43009;DHT22;28634;45.454;11.106;2022-09-19T03:29:37;26.20;37.60
43009;DHT22;28634;45.454;11.106;2022-09-19T03:32:04;26.10;37.50
43009;DHT22;28634;45.454;11.106;2022-09-19T03:34:31;26.20;37.50
43009;DHT22;28634;45.454;11.106;2022-09-19T03:36:59;26.10;37.60
43009;DHT22;28634;45.454;11.106;2022-09-19T03:39:27;26.20;37.50
43009;DHT22;28634;45.454;11.106;2022-09-19T03:41:54;26.10;37.50
43009;DHT22;28634;45.454;11.106;2022-09-19T03:44:21;26.10;37.40
43009;DHT22;28634;45.454;11.106;2022-09-19T03:46:48;26.10;37.50
43009;DHT22;28634;45.454;11.106;2022-09-19T03:49:15;26.10;37.70
43009;DHT22;28634;45.454;11.106;2022-09-19T03:51:43;26.10;37.60
43009;DHT22;28634;45.454;11.106;2022-09-19T03:54:13;26.10;37.70
43009;DHT22;28634;45.454;11.106;2022-09-19T03:56:40;26.10;37.60
43009;DHT22;28634;45.454;11.106;2022-09-19T03:59:07;26.10;37.70
43009;DHT22;28634;45.454;11.106;2022-09-19T04:01:34;26.10;37.70
43009;DHT22;28634;45.454;11.106;2022-09-19T04:04:01;26.10;37.60
43009;DHT22;28634;45.454;11.106;2022-09-19T04:06:28;26.00;37.70
43009;DHT22;28634;45.454;11.106;2022-09-19T04:08:55;26.10;37.80
43009;DHT22;28634;45.454;11.106;2022-09-19T04:11:22;26.00;37.80
43009;DHT22;28634;45.454;11.106;2022-09-19T04:13:49;26.00;37.70
43009;DHT22;28634;45.454;11.106;2022-09-19T04:16:17;26.00;37.70
43009;DHT22;28634;45.454;11.106;2022-09-19T04:18:45;26.00;37.60
43009;DHT22;28634;45.454;11.106;2022-09-19T04:21:17;26.00;37.70
43009;DHT22;28634;45.454;11.106;2022-09-19T04:23:45;26.10;37.80
43009;DHT22;28634;45.454;11.106;2022-09-19T04:26:12;26.00;37.80
43009;DHT22;28634;45.454;11.106;2022-09-19T04:28:40;26.00;37.80
43009;DHT22;28634;45.454;11.106;2022-09-19T04:31:10;26.00;37.80
43009;DHT22;28634;45.454;11.106;2022-09-19T04:33:39;26.00;37.80
43009;DHT22;28634;45.454;11.106;2022-09-19T04:36:07;26.00;37.90
43009;DHT22;28634;45.454;11.106;2022-09-19T04:38:35;26.00;37.90
43009;DHT22;28634;45.454;11.106;2022-09-19T04:41:04;26.00;37.90
43009;DHT22;28634;45.454;11.106;2022-09-19T04:43:31;26.00;37.90
43009;DHT22;28634;45.454;11.106;2022-09-19T04:45:59;26.00;37.90
43009;DHT22;28634;45.454;11.106;2022-09-19T04:48:26;26.00;37.90
43009;DHT22;28634;45.454;11.106;2022-09-19T04:50:53;25.90;38.00
43009;DHT22;28634;45.454;11.106;2022-09-19T04:53:22;25.90;38.00
43009;DHT22;28634;45.454;11.106;2022-09-19T04:55:54;25.90;38.00
43009;DHT22;28634;45.454;11.106;2022-09-19T04:58:22;26.00;38.10
43009;DHT22;28634;45.454;11.106;2022-09-19T05:00:53;25.90;38.00
43009;DHT22;28634;45.454;11.106;2022-09-19T05:03:22;25.90;38.10
43009;DHT22;28634;45.454;11.106;2022-09-19T05:05:53;25.90;38.20
43009;DHT22;28634;45.454;11.106;2022-09-19T05:08:22;25.90;38.20
43009;DHT22;28634;45.454;11.106;2022-09-19T05:10:54;25.90;38.10
43009;DHT22;28634;45.454;11.106;2022-09-19T05:13:26;25.90;38.20
43009;DHT22;28634;45.454;11.106;2022-09-19T05:15:58;25.90;38.30
43009;DHT22;28634;45.454;11.106;2022-09-19T05:18:27;25.90;38.20
43009;DHT22;28634;45.454;11.106;2022-09-19T05:20:55;25.80;38.20
43009;DHT22;28634;45.454;11.106;2022-09-19T05:23:24;25.80;38.30
43009;DHT22;28634;45.454;11.106;2022-09-19T05:25:52;25.80;38.40
43009;DHT22;28634;45.454;11.106;2022-09-19T05:28:23;25.80;38.40
43009;DHT22;28634;45.454;11.106;2022-09-19T05:30:54;25.80;38.40
43009;DHT22;28634;45.454;11.106;2022-09-19T05:33:25;25.80;38.50
43009;DHT22;28634;45.454;11.106;2022-09-19T05:35:56;25.80;38.50
43009;DHT22;28634;45.454;11.106;2022-09-19T05:38:27;25.80;38.50
43009;DHT22;28634;45.454;11.106;2022-09-19T05:40:55;25.80;38.50
43009;DHT22;28634;45.454;11.106;2022-09-19T05:43:23;25.80;38.50
43009;DHT22;28634;45.454;11.106;2022-09-19T05:45:55;25.80;38.60
43009;DHT22;28634;45.454;11.106;2022-09-19T05:48:24;25.80;38.60
43009;DHT22;28634;45.454;11.106;2022-09-19T05:50:52;25.80;38.50
43009;DHT22;28634;45.454;11.106;2022-09-19T05:53:20;25.80;38.60
43009;DHT22;28634;45.454;11.106;2022-09-19T05:56:07;25.80;38.60
43009;DHT22;28634;45.454;11.106;2022-09-19T05:58:36;25.80;38.80
43009;DHT22;28634;45.454;11.106;2022-09-19T06:01:10;25.70;38.70
43009;DHT22;28634;45.454;11.106;2022-09-19T06:03:38;25.70;38.80
43009;DHT22;28634;45.454;11.106;2022-09-19T06:06:11;25.70;38.70
43009;DHT22;28634;45.454;11.106;2022-09-19T06:08:41;25.70;38.90
43009;DHT22;28634;45.454;11.106;2022-09-19T06:11:12;25.70;39.00
43009;DHT22;28634;45.454;11.106;2022-09-19T06:13:39;25.70;38.90
43009;DHT22;28634;45.454;11.106;2022-09-19T06:16:25;25.70;39.00
43009;DHT22;28634;45.454;11.106;2022-09-19T06:18:52;25.60;39.10
43009;DHT22;28634;45.454;11.106;2022-09-19T06:21:19;25.60;39.20
43009;DHT22;28634;45.454;11.106;2022-09-19T06:23:46;25.60;39.10
43009;DHT22;28634;45.454;11.106;2022-09-19T06:26:13;25.50;39.20
43009;DHT22;28634;45.454;11.106;2022-09-19T06:28:41;25.50;39.20
43009;DHT22;28634;45.454;11.106;2022-09-19T06:31:08;25.50;39.20
43009;DHT22;28634;45.454;11.106;2022-09-19T06:33:35;25.50;39.40
43009;DHT22;28634;45.454;11.106;2022-09-19T06:36:03;25.50;39.50
43009;DHT22;28634;45.454;11.106;2022-09-19T06:38:30;25.50;39.70
43009;DHT22;28634;45.454;11.106;2022-09-19T06:41:00;25.50;39.70
43009;DHT22;28634;45.454;11.106;2022-09-19T06:43:27;25.50;39.70
43009;DHT22;28634;45.454;11.106;2022-09-19T06:45:56;25.50;39.70
43009;DHT22;28634;45.454;11.106;2022-09-19T06:48:23;25.50;39.80
43009;DHT22;28634;45.454;11.106;2022-09-19T06:50:51;25.50;39.90
43009;DHT22;28634;45.454;11.106;2022-09-19T06:53:18;25.40;39.90
43009;DHT22;28634;45.454;11.106;2022-09-19T06:55:45;25.40;39.80
43009;DHT22;28634;45.454;11.106;2022-09-19T06:58:13;25.40;39.90
43009;DHT22;28634;45.454;11.106;2022-09-19T07:00:41;25.40;39.70
43009;DHT22;28634;45.454;11.106;2022-09-19T07:03:15;25.30;39.30
43009;DHT22;28634;45.454;11.106;2022-09-19T07:05:44;25.20;39.10
43009;DHT22;28634;45.454;11.106;2022-09-19T07:08:13;25.10;38.70
43009;DHT22;28634;45.454;11.106;2022-09-19T07:10:43;25.00;39.20
43009;DHT22;28634;45.454;11.106;2022-09-19T07:13:12;25.00;39.60
43009;DHT22;28634;45.454;11.106;2022-09-19T07:15:43;25.10;39.60
43009;DHT22;28634;45.454;11.106;2022-09-19T07:18:10;25.10;39.70
43009;DHT22;28634;45.454;11.106;2022-09-19T07:20:40;25.10;39.70
43009;DHT22;28634;45.454;11.106;2022-09-19T07:23:15;25.20;39.80
43009;DHT22;28634;45.454;11.106;2022-09-19T07:25:43;25.20;39.80
43009;DHT22;28634;45.454;11.106;2022-09-19T07:28:12;25.20;39.80
43009;DHT22;28634;45.454;11.106;2022-09-19T07:30:40;25.20;39.60
43009;DHT22;28634;45.454;11.106;2022-09-19T07:33:12;25.20;39.50
43009;DHT22;28634;45.454;11.106;2022-09-19T07:35:40;25.20;39.50
43009;DHT22;28634;45.454;11.106;2022-09-19T07:38:15;25.20;39.50
43009;DHT22;28634;45.454;11.106;2022-09-19T07:40:42;25.20;39.40
43009;DHT22;28634;45.454;11.106;2022-09-19T07:43:11;25.20;39.40
43009;DHT22;28634;45.454;11.106;2022-09-19T07:45:45;25.20;39.60
43009;DHT22;28634;45.454;11.106;2022-09-19T07:48:13;25.20;39.40
43009;DHT22;28634;45.454;11.106;2022-09-19T07:50:41;25.20;39.70
43009;DHT22;28634;45.454;11.106;2022-09-19T07:53:13;25.20;39.70
43009;DHT22;28634;45.454;11.106;2022-09-19T07:55:41;25.20;39.10
43009;DHT22;28634;45.454;11.106;2022-09-19T07:58:11;25.10;39.60
43009;DHT22;28634;45.454;11.106;2022-09-19T08:00:39;25.10;39.50
43009;DHT22;28634;45.454;11.106;2022-09-19T08:03:10;25.20;39.30
43009;DHT22;28634;45.454;11.106;2022-09-19T08:05:40;25.10;39.40
43009;DHT22;28634;45.454;11.106;2022-09-19T08:08:09;25.10;39.40
43009;DHT22;28634;45.454;11.106;2022-09-19T08:10:39;25.10;39.30
43009;DHT22;28634;45.454;11.106;2022-09-19T08:13:13;25.10;39.20
43009;DHT22;28634;45.454;11.106;2022-09-19T08:15:43;25.10;36.30
43009;DHT22;28634;45.454;11.106;2022-09-19T08:18:15;25.00;38.70
43009;DHT22;28634;45.454;11.106;2022-09-19T08:20:43;25.10;39.10
43009;DHT22;28634;45.454;11.106;2022-09-19T08:23:15;25.10;39.10
43009;DHT22;28634;45.454;11.106;2022-09-19T08:25:43;25.20;39.00
43009;DHT22;28634;45.454;11.106;2022-09-19T08:28:16;25.20;38.70
43009;DHT22;28634;45.454;11.106;2022-09-19T08:30:43;25.20;38.90
43009;DHT22;28634;45.454;11.106;2022-09-19T08:33:12;25.20;38.90
43009;DHT22;28634;45.454;11.106;2022-09-19T08:35:39;25.20;38.90
43009;DHT22;28634;45.454;11.106;2022-09-19T08:38:10;25.20;39.50
43009;DHT22;28634;45.454;11.106;2022-09-19T08:43:12;25.30;39.10
43009;DHT22;28634;45.454;11.106;2022-09-19T08:45:53;25.30;38.90
43009;DHT22;28634;45.454;11.106;2022-09-19T08:48:35;25.30;38.20
43009;DHT22;28634;45.454;11.106;2022-09-19T08:51:21;25.30;39.40
43009;DHT22;28634;45.454;11.106;2022-09-19T08:53:56;25.30;39.80
43009;DHT22;28634;45.454;11.106;2022-09-19T08:56:25;25.30;39.30
43009;DHT22;28634;45.454;11.106;2022-09-19T08:58:59;25.30;39.00
43009;DHT22;28634;45.454;11.106;2022-09-19T09:01:33;25.30;39.40
43009;DHT22;28634;45.454;11.106;2022-09-19T09:06:43;25.30;38.30
43009;DHT22;28634;45.454;11.106;2022-09-19T09:15:08;25.40;37.90
43009;DHT22;28634;45.454;11.106;2022-09-19T09:20:49;25.40;38.30
43009;DHT22;28634;45.454;11.106;2022-09-19T09:23:24;25.40;38.90
43009;DHT22;28634;45.454;11.106;2022-09-19T09:26:22;25.40;39.00
43009;DHT22;28634;45.454;11.106;2022-09-19T09:28:57;25.40;38.00
43009;DHT22;28634;45.454;11.106;2022-09-19T09:31:33;25.50;38.30
43009;DHT22;28634;45.454;11.106;2022-09-19T09:34:10;25.50;38.10
43009;DHT22;28634;45.454;11.106;2022-09-19T09:39:34;25.50;38.30
43009;DHT22;28634;45.454;11.106;2022-09-19T09:42:22;25.50;38.40
43009;DHT22;28634;45.454;11.106;2022-09-19T09:45:01;25.60;38.20
43009;DHT22;28634;45.454;11.106;2022-09-19T10:01:56;25.60;39.00
43009;DHT22;28634;45.454;11.106;2022-09-19T10:04:49;25.60;38.70
43009;DHT22;28634;45.454;11.106;2022-09-19T10:07:38;25.60;38.60
43009;DHT22;28634;45.454;11.106;2022-09-19T10:10:14;25.60;38.90
43009;DHT22;28634;45.454;11.106;2022-09-19T10:15:29;25.70;38.70
43009;DHT22;28634;45.454;11.106;2022-09-19T10:18:06;25.70;39.00
43009;DHT22;28634;45.454;11.106;2022-09-19T10:20:39;25.70;38.60
43009;DHT22;28634;45.454;11.106;2022-09-19T10:23:13;25.70;38.40
43009;DHT22;28634;45.454;11.106;2022-09-19T10:25:41;25.70;38.90
43009;DHT22;28634;45.454;11.106;2022-09-19T10:28:23;25.70;38.40
43009;DHT22;28634;45.454;11.106;2022-09-19T10:30:59;25.70;36.60
43009;DHT22;28634;45.454;11.106;2022-09-19T10:36:04;25.70;36.70
43009;DHT22;28634;45.454;11.106;2022-09-19T10:38:58;25.70;37.50
43009;DHT22;28634;45.454;11.106;2022-09-19T10:41:29;25.80;37.90
43009;DHT22;28634;45.454;11.106;2022-09-19T10:44:01;25.70;38.10
43009;DHT22;28634;45.454;11.106;2022-09-19T10:46:32;25.80;37.10
43009;DHT22;28634;45.454;11.106;2022-09-19T10:49:06;25.80;37.40
43009;DHT22;28634;45.454;11.106;2022-09-19T10:51:45;25.80;37.40
43009;DHT22;28634;45.454;11.106;2022-09-19T10:56:51;25.80;38.20
43009;DHT22;28634;45.454;11.106;2022-09-19T11:04:37;25.80;38.30
43009;DHT22;28634;45.454;11.106;2022-09-19T11:07:25;25.80;38.20
43009;DHT22;28634;45.454;11.106;2022-09-19T11:09:53;25.90;38.30
43009;DHT22;28634;45.454;11.106;2022-09-19T11:12:27;25.80;38.40
43009;DHT22;28634;45.454;11.106;2022-09-19T11:14:58;25.90;37.30
43009;DHT22;28634;45.454;11.106;2022-09-19T11:20:35;26.00;35.20
43009;DHT22;28634;45.454;11.106;2022-09-19T11:29:08;26.10;33.70
43009;DHT22;28634;45.454;11.106;2022-09-19T11:32:00;26.00;33.60
43009;DHT22;28634;45.454;11.106;2022-09-19T11:35:37;26.00;33.80
43009;DHT22;28634;45.454;11.106;2022-09-19T11:40:37;26.00;35.30
43009;DHT22;28634;45.454;11.106;2022-09-19T11:43:35;26.00;35.80
43009;DHT22;28634;45.454;11.106;2022-09-19T11:55:04;26.00;36.90
43009;DHT22;28634;45.454;11.106;2022-09-19T12:00:20;26.10;36.90
43009;DHT22;28634;45.454;11.106;2022-09-19T12:03:25;26.10;36.90
43009;DHT22;28634;45.454;11.106;2022-09-19T12:06:14;26.10;36.30
43009;DHT22;28634;45.454;11.106;2022-09-19T12:09:03;26.20;36.00
43009;DHT22;28634;45.454;11.106;2022-09-19T12:14:46;26.20;34.20
43009;DHT22;28634;45.454;11.106;2022-09-19T12:17:22;26.30;35.00
43009;DHT22;28634;45.454;11.106;2022-09-19T12:20:01;26.20;36.20
43009;DHT22;28634;45.454;11.106;2022-09-19T12:22:31;26.20;36.20
43009;DHT22;28634;45.454;11.106;2022-09-19T12:25:07;26.20;36.00
43009;DHT22;28634;45.454;11.106;2022-09-19T12:27:46;26.20;36.00
43009;DHT22;28634;45.454;11.106;2022-09-19T12:30:17;26.30;32.00
43009;DHT22;28634;45.454;11.106;2022-09-19T12:35:45;26.50;30.00
43009;DHT22;28634;45.454;11.106;2022-09-19T12:38:25;26.60;28.70
43009;DHT22;28634;45.454;11.106;2022-09-19T12:43:45;26.60;26.70
43009;DHT22;28634;45.454;11.106;2022-09-19T12:54:45;26.70;28.70
43009;DHT22;28634;45.454;11.106;2022-09-19T12:57:23;26.80;27.80
43009;DHT22;28634;45.454;11.106;2022-09-19T12:59:52;26.90;27.40
43009;DHT22;28634;45.454;11.106;2022-09-19T13:02:34;27.00;27.10
43009;DHT22;28634;45.454;11.106;2022-09-19T13:05:28;27.00;27.30
43009;DHT22;28634;45.454;11.106;2022-09-19T13:08:05;27.00;27.00
43009;DHT22;28634;45.454;11.106;2022-09-19T13:10:39;26.90;28.50
43009;DHT22;28634;45.454;11.106;2022-09-19T13:15:58;26.90;28.40
43009;DHT22;28634;45.454;11.106;2022-09-19T13:18:28;26.90;27.50
43009;DHT22;28634;45.454;11.106;2022-09-19T13:22:03;27.00;27.80
43009;DHT22;28634;45.454;11.106;2022-09-19T13:24:53;27.00;27.90
43009;DHT22;28634;45.454;11.106;2022-09-19T13:27:24;27.00;27.50
43009;DHT22;28634;45.454;11.106;2022-09-19T13:29:52;27.00;29.60
43009;DHT22;28634;45.454;11.106;2022-09-19T13:32:48;26.90;30.00
43009;DHT22;28634;45.454;11.106;2022-09-19T13:35:22;26.80;30.90
43009;DHT22;28634;45.454;11.106;2022-09-19T13:37:59;26.70;30.80
43009;DHT22;28634;45.454;11.106;2022-09-19T13:40:45;26.70;33.30
43009;DHT22;28634;45.454;11.106;2022-09-19T13:43:29;26.60;35.30
43009;DHT22;28634;45.454;11.106;2022-09-19T13:46:06;26.30;33.10
43009;DHT22;28634;45.454;11.106;2022-09-19T13:48:50;26.40;34.50
43009;DHT22;28634;45.454;11.106;2022-09-19T13:54:29;26.20;36.70
43009;DHT22;28634;45.454;11.106;2022-09-19T14:04:40;26.30;36.20
43009;DHT22;28634;45.454;11.106;2022-09-19T14:10:38;26.20;37.00
43009;DHT22;28634;45.454;11.106;2022-09-19T14:16:04;26.20;36.00
43009;DHT22;28634;45.454;11.106;2022-09-19T14:21:08;26.20;32.20
43009;DHT22;28634;45.454;11.106;2022-09-19T14:23:38;26.30;32.50
43009;DHT22;28634;45.454;11.106;2022-09-19T14:38:10;26.30;37.20
43009;DHT22;28634;45.454;11.106;2022-09-19T14:40:09;26.20;35.80
43009;DHT22;28634;45.454;11.106;2022-09-19T14:45:25;26.20;33.40
43009;DHT22;28634;45.454;11.106;2022-09-19T14:48:03;26.20;31.10
43009;DHT22;28634;45.454;11.106;2022-09-19T14:50:39;26.20;36.60
43009;DHT22;28634;45.454;11.106;2022-09-19T14:53:16;26.20;37.00
43009;DHT22;28634;45.454;11.106;2022-09-19T14:56:03;26.20;33.70
43009;DHT22;28634;45.454;11.106;2022-09-19T14:58:34;26.30;32.70
43009;DHT22;28634;45.454;11.106;2022-09-19T15:01:17;26.30;34.00
43009;DHT22;28634;45.454;11.106;2022-09-19T15:03:48;26.30;35.90
43009;DHT22;28634;45.454;11.106;2022-09-19T15:08:55;26.30;35.40
43009;DHT22;28634;45.454;11.106;2022-09-19T15:11:23;26.30;35.40
43009;DHT22;28634;45.454;11.106;2022-09-19T15:13:53;26.30;35.60
43009;DHT22;28634;45.454;11.106;2022-09-19T15:16:24;26.30;34.00
43009;DHT22;28634;45.454;11.106;2022-09-19T15:18:55;26.30;34.50
43009;DHT22;28634;45.454;11.106;2022-09-19T15:21:30;26.30;36.00
43009;DHT22;28634;45.454;11.106;2022-09-19T15:24:00;26.30;37.00
43009;DHT22;28634;45.454;11.106;2022-09-19T15:26:30;26.30;34.70
43009;DHT22;28634;45.454;11.106;2022-09-19T15:29:03;26.30;34.80
43009;DHT22;28634;45.454;11.106;2022-09-19T15:31:32;26.30;36.50
43009;DHT22;28634;45.454;11.106;2022-09-19T15:34:05;26.30;36.90
43009;DHT22;28634;45.454;11.106;2022-09-19T15:36:36;26.20;37.00
43009;DHT22;28634;45.454;11.106;2022-09-19T15:39:05;26.20;36.00
43009;DHT22;28634;45.454;11.106;2022-09-19T15:41:33;26.20;35.00
43009;DHT22;28634;45.454;11.106;2022-09-19T15:44:01;26.30;33.90
43009;DHT22;28634;45.454;11.106;2022-09-19T15:46:45;26.40;36.50
43009;DHT22;28634;45.454;11.106;2022-09-19T15:51:57;26.40;37.40
43009;DHT22;28634;45.454;11.106;2022-09-19T15:54:27;26.30;37.40
43009;DHT22;28634;45.454;11.106;2022-09-19T15:57:23;26.40;36.50
43009;DHT22;28634;45.454;11.106;2022-09-19T16:00:06;26.30;37.60
43009;DHT22;28634;45.454;11.106;2022-09-19T16:02:36;26.30;37.70
43009;DHT22;28634;45.454;11.106;2022-09-19T16:05:21;26.30;37.90
43009;DHT22;28634;45.454;11.106;2022-09-19T16:07:53;26.40;37.90
43009;DHT22;28634;45.454;11.106;2022-09-19T16:10:41;26.40;37.70
43009;DHT22;28634;45.454;11.106;2022-09-19T16:13:40;26.40;38.00
43009;DHT22;28634;45.454;11.106;2022-09-19T16:16:36;26.40;37.90
43009;DHT22;28634;45.454;11.106;2022-09-19T16:19:04;26.40;37.90
43009;DHT22;28634;45.454;11.106;2022-09-19T16:21:40;26.40;38.10
43009;DHT22;28634;45.454;11.106;2022-09-19T16:24:17;26.40;38.00
43009;DHT22;28634;45.454;11.106;2022-09-19T16:26:49;26.40;37.70
43009;DHT22;28634;45.454;11.106;2022-09-19T16:29:19;26.50;38.00
43009;DHT22;28634;45.454;11.106;2022-09-19T16:31:47;26.50;38.10
43009;DHT22;28634;45.454;11.106;2022-09-19T16:34:36;26.40;37.90
43009;DHT22;28634;45.454;11.106;2022-09-19T16:37:04;26.40;38.00
43009;DHT22;28634;45.454;11.106;2022-09-19T16:44:40;26.50;37.70
43009;DHT22;28634;45.454;11.106;2022-09-19T16:49:35;26.50;37.40
43009;DHT22;28634;45.454;11.106;2022-09-19T16:52:03;26.50;37.70
43009;DHT22;28634;45.454;11.106;2022-09-19T16:54:31;26.50;37.70
43009;DHT22;28634;45.454;11.106;2022-09-19T16:56:58;26.60;37.50
43009;DHT22;28634;45.454;11.106;2022-09-19T16:59:25;26.60;37.60
43009;DHT22;28634;45.454;11.106;2022-09-19T17:01:54;26.60;37.60
43009;DHT22;28634;45.454;11.106;2022-09-19T17:04:22;26.60;37.50
43009;DHT22;28634;45.454;11.106;2022-09-19T17:06:50;26.60;37.50
43009;DHT22;28634;45.454;11.106;2022-09-19T17:09:24;26.60;37.30
43009;DHT22;28634;45.454;11.106;2022-09-19T17:11:51;26.60;37.60
43009;DHT22;28634;45.454;11.106;2022-09-19T17:14:20;26.70;37.40
43009;DHT22;28634;45.454;11.106;2022-09-19T17:16:48;26.70;37.70
43009;DHT22;28634;45.454;11.106;2022-09-19T17:19:18;26.70;37.50
43009;DHT22;28634;45.454;11.106;2022-09-19T17:21:45;26.70;37.50
43009;DHT22;28634;45.454;11.106;2022-09-19T17:24:13;26.70;37.20
43009;DHT22;28634;45.454;11.106;2022-09-19T17:26:40;26.70;37.30
43009;DHT22;28634;45.454;11.106;2022-09-19T17:29:07;26.70;36.90
43009;DHT22;28634;45.454;11.106;2022-09-19T17:31:35;26.70;37.10
43009;DHT22;28634;45.454;11.106;2022-09-19T17:34:02;26.70;37.10
43009;DHT22;28634;45.454;11.106;2022-09-19T17:36:33;26.70;37.10
43009;DHT22;28634;45.454;11.106;2022-09-19T17:39:02;26.70;37.10
43009;DHT22;28634;45.454;11.106;2022-09-19T17:41:30;26.70;36.90
43009;DHT22;28634;45.454;11.106;2022-09-19T17:44:02;26.70;36.20
43009;DHT22;28634;45.454;11.106;2022-09-19T17:46:33;26.70;36.10
43009;DHT22;28634;45.454;11.106;2022-09-19T17:49:00;26.80;36.50
43009;DHT22;28634;45.454;11.106;2022-09-19T17:51:30;26.70;36.60
43009;DHT22;28634;45.454;11.106;2022-09-19T17:53:57;26.80;36.70
43009;DHT22;28634;45.454;11.106;2022-09-19T17:56:26;26.80;36.70
43009;DHT22;28634;45.454;11.106;2022-09-19T17:58:55;26.80;36.70
43009;DHT22;28634;45.454;11.106;2022-09-19T18:01:23;26.80;36.60
43009;DHT22;28634;45.454;11.106;2022-09-19T18:04:10;26.80;36.50
43009;DHT22;28634;45.454;11.106;2022-09-19T18:06:38;26.80;36.40
43009;DHT22;28634;45.454;11.106;2022-09-19T18:09:07;26.80;36.50
43009;DHT22;28634;45.454;11.106;2022-09-19T18:11:35;26.90;36.40
43009;DHT22;28634;45.454;11.106;2022-09-19T18:14:04;26.90;36.30
43009;DHT22;28634;45.454;11.106;2022-09-19T18:16:34;26.90;36.30
43009;DHT22;28634;45.454;11.106;2022-09-19T18:19:09;26.90;36.20
43009;DHT22;28634;45.454;11.106;2022-09-19T18:21:36;26.90;36.20
43009;DHT22;28634;45.454;11.106;2022-09-19T18:24:08;27.00;36.30
43009;DHT22;28634;45.454;11.106;2022-09-19T18:26:36;26.90;36.20
43009;DHT22;28634;45.454;11.106;2022-09-19T18:29:04;27.00;35.90
43009;DHT22;28634;45.454;11.106;2022-09-19T18:31:31;26.90;36.00
43009;DHT22;28634;45.454;11.106;2022-09-19T18:34:04;27.00;36.10
43009;DHT22;28634;45.454;11.106;2022-09-19T18:36:38;27.00;36.10
43009;DHT22;28634;45.454;11.106;2022-09-19T18:39:06;27.00;34.50
43009;DHT22;28634;45.454;11.106;2022-09-19T18:41:36;26.70;33.40
43009;DHT22;28634;45.454;11.106;2022-09-19T18:44:03;26.60;35.40